Time;durP1;ratioP1;P1;durP2;ratioP2;P2;SDS_P1;SDS_P2;PMS_P1;PMS_P2;Temp;Humidity;BMP_temperature;BMP_pressure;BME280_temperature;BME280_humidity;BME280_pressure;Samples;Min_cycle;Max_cycle;Signal;HPM_P1;HPM_P2
2022/01/19 00:00:59;;;;;;;40.75;21.50;;;7.50;99.90;;;;;;5073074;28;20467;-73
2022/01/19 00:03:25;;;;;;;32.90;18.85;;;7.40;99.90;;;;;;5073176;28;20038;-74
2022/01/19 00:05:51;;;;;;;35.70;20.10;;;7.40;99.90;;;;;;5073244;28;20035;-74
2022/01/19 00:08:21;;;;;;;30.77;18.73;;;7.50;99.90;;;;;;5073597;28;20099;-74
2022/01/19 00:10:48;;;;;;;34.70;19.77;;;7.50;99.90;;;;;;5072973;28;20372;-73
2022/01/19 00:13:14;;;;;;;33.65;19.63;;;7.50;99.90;;;;;;5073522;28;20525;-74
2022/01/19 00:15:40;;;;;;;35.42;20.58;;;7.60;99.90;;;;;;5077086;28;20074;-73
2022/01/19 00:18:06;;;;;;;31.25;18.73;;;7.60;99.90;;;;;;5077037;28;20028;-73
2022/01/19 00:20:33;;;;;;;30.20;18.17;;;7.70;99.90;;;;;;5076956;28;20520;-73
2022/01/19 00:23:01;;;;;;;34.92;20.23;;;7.60;99.90;;;;;;5077449;28;20523;-74
2022/01/19 00:25:27;;;;;;;29.38;17.98;;;7.70;99.90;;;;;;5076788;28;20024;-73
2022/01/19 00:27:53;;;;;;;31.67;17.98;;;7.60;99.90;;;;;;5077677;28;20403;-73
2022/01/19 00:30:18;;;;;;;29.35;17.92;;;7.70;99.90;;;;;;5058809;28;20359;-74
2022/01/19 00:32:44;;;;;;;31.20;17.90;;;7.80;99.90;;;;;;5076755;28;20490;-73
2022/01/19 00:35:11;;;;;;;35.08;18.95;;;7.70;99.90;;;;;;5076712;28;20016;-73
2022/01/19 00:37:38;;;;;;;27.92;16.55;;;7.80;99.90;;;;;;5058638;28;20028;-74
2022/01/19 00:40:05;;;;;;;31.15;18.88;;;7.80;99.90;;;;;;5076855;28;20063;-73
2022/01/19 00:42:31;;;;;;;36.45;20.35;;;7.80;99.90;;;;;;5076490;28;20025;-73
2022/01/19 00:44:56;;;;;;;45.35;23.80;;;7.90;99.90;;;;;;5076738;28;20079;-74
2022/01/19 00:47:22;;;;;;;48.70;24.77;;;7.80;99.90;;;;;;5076319;28;20036;-73
2022/01/19 00:49:48;;;;;;;47.25;22.58;;;7.80;99.90;;;;;;5076655;28;20017;-73
2022/01/19 00:52:14;;;;;;;45.78;23.55;;;7.80;99.90;;;;;;5076355;28;20390;-73
2022/01/19 00:54:41;;;;;;;42.30;21.70;;;7.80;99.90;;;;;;5076298;28;20478;-73
2022/01/19 00:57:08;;;;;;;31.95;18.02;;;7.80;99.90;;;;;;5076522;28;20021;-73
2022/01/19 00:59:34;;;;;;;31.30;16.30;;;7.70;99.90;;;;;;5076491;28;20155;-74
2022/01/19 01:02:00;;;;;;;33.97;18.48;;;7.70;99.90;;;;;;5076433;28;20058;-74
2022/01/19 01:04:26;;;;;;;30.08;18.48;;;7.50;99.90;;;;;;5058186;28;20028;-74
2022/01/19 01:06:52;;;;;;;34.85;18.83;;;7.40;99.90;;;;;;5076300;28;20036;-73
2022/01/19 01:09:17;;;;;;;31.45;19.15;;;7.40;99.90;;;;;;5076066;28;20101;-74
2022/01/19 01:11:56;;;;;;;33.85;18.48;;;7.50;99.90;;;;;;5075822;28;20044;-73
2022/01/19 01:20:00;;;;;;;33.65;18.90;;;7.60;99.90;;;;;;5044921;28;20040;-75
2022/01/19 01:22:26;;;;;;;34.80;17.88;;;7.60;99.90;;;;;;5076111;28;20029;-74
2022/01/19 01:24:52;;;;;;;27.95;17.33;;;7.60;99.90;;;;;;5075469;28;20099;-73
2022/01/19 01:27:18;;;;;;;34.45;19.42;;;7.60;99.90;;;;;;5075929;28;20028;-75
2022/01/19 01:29:44;;;;;;;33.33;18.38;;;7.60;99.90;;;;;;5075680;28;20021;-74
2022/01/19 01:32:09;;;;;;;31.42;18.33;;;7.60;99.90;;;;;;5075861;28;20017;-74
2022/01/19 01:34:35;;;;;;;32.95;17.88;;;7.70;99.90;;;;;;5075842;28;20096;-74
2022/01/19 01:37:01;;;;;;;32.75;18.05;;;7.70;99.90;;;;;;5075524;28;20078;-74
2022/01/19 01:39:27;;;;;;;29.95;17.58;;;7.70;99.90;;;;;;5075549;28;20059;-73
2022/01/19 01:41:52;;;;;;;33.55;19.27;;;7.70;99.90;;;;;;5075456;28;20379;-73
2022/01/19 01:44:18;;;;;;;31.98;18.23;;;7.70;99.90;;;;;;5075426;28;20070;-74
2022/01/19 01:46:55;;;;;;;30.35;18.27;;;7.70;99.90;;;;;;5075262;28;20028;-74
2022/01/19 01:54:52;;;;;;;39.30;21.00;;;7.60;99.90;;;;;;5075274;28;20046;-74
2022/01/19 01:57:17;;;;;;;33.15;19.02;;;7.60;99.90;;;;;;5075128;28;20530;-73
2022/01/19 01:59:43;;;;;;;33.58;18.08;;;7.60;99.90;;;;;;5075662;28;20027;-73
2022/01/19 02:02:09;;;;;;;35.20;19.60;;;7.60;99.90;;;;;;5057083;28;20063;-74
2022/01/19 02:04:40;;;;;;;35.85;20.45;;;7.60;99.90;;;;;;5074964;28;20031;-73
2022/01/19 02:09:49;;;;;;;37.05;18.35;;;7.60;99.90;;;;;;5074673;28;20025;-74
2022/01/19 02:23:28;;;;;;;36.28;20.17;;;7.60;99.90;;;;;;5074962;28;20035;-74
2022/01/19 02:25:58;;;;;;;36.05;18.83;;;7.70;99.90;;;;;;5074849;28;20130;-74
2022/01/19 02:42:40;;;;;;;33.97;18.20;;;7.60;99.90;;;;;;5074318;28;20074;-74
2022/01/19 02:58:24;;;;;;;35.58;20.30;;;7.70;99.90;;;;;;4517845;29;20518;-74
2022/01/19 03:09:23;;;;;;;37.75;21.00;;;7.60;99.90;;;;;;4975488;28;20035;-73
2022/01/19 03:11:50;;;;;;;41.88;21.63;;;7.60;99.90;;;;;;4975077;28;20038;-74
2022/01/19 03:14:17;;;;;;;30.13;19.25;;;7.60;99.90;;;;;;4975260;28;20027;-73
2022/01/19 03:16:44;;;;;;;33.78;20.55;;;7.70;99.90;;;;;;4975021;28;20030;-73
2022/01/19 03:19:11;;;;;;;31.98;19.60;;;7.60;99.90;;;;;;4974915;28;20023;-73
2022/01/19 03:21:37;;;;;;;34.17;21.17;;;7.70;99.90;;;;;;4974863;28;20023;-72
2022/01/19 03:24:04;;;;;;;38.17;22.27;;;7.70;99.90;;;;;;4974900;28;20026;-73
2022/01/19 03:26:29;;;;;;;33.25;20.58;;;7.60;99.90;;;;;;4974796;28;20026;-72
2022/01/19 03:28:55;;;;;;;31.98;19.25;;;7.60;99.90;;;;;;4974772;28;20383;-72
2022/01/19 03:31:20;;;;;;;31.38;19.85;;;7.50;99.90;;;;;;4974861;28;20031;-72
2022/01/19 03:33:46;;;;;;;32.28;19.90;;;7.50;99.90;;;;;;4974590;28;20023;-74
2022/01/19 03:36:12;;;;;;;35.72;20.13;;;7.40;99.90;;;;;;4974892;28;20381;-74
2022/01/19 03:38:38;;;;;;;33.45;19.90;;;7.40;99.90;;;;;;4974477;28;20037;-73
2022/01/19 03:41:04;;;;;;;32.38;19.80;;;7.40;99.90;;;;;;4975005;28;20031;-74
2022/01/19 03:43:30;;;;;;;34.53;19.17;;;7.40;99.90;;;;;;4957204;28;20035;-73
2022/01/19 03:45:58;;;;;;;30.50;18.45;;;7.50;99.90;;;;;;4974429;28;20053;-75
2022/01/19 03:50:53;;;;;;;31.25;19.40;;;7.60;99.90;;;;;;4974471;28;20027;-74
2022/01/19 03:53:19;;;;;;;34.13;18.65;;;7.60;99.90;;;;;;4974787;28;20469;-74
2022/01/19 03:55:44;;;;;;;32.00;19.90;;;7.60;99.90;;;;;;4974427;28;20027;-75
2022/01/19 03:58:10;;;;;;;32.00;18.67;;;7.60;99.90;;;;;;4974393;28;20023;-74
2022/01/19 04:00:41;;;;;;;30.63;18.58;;;7.70;99.90;;;;;;4974414;28;20026;-75
2022/01/19 04:03:09;;;;;;;31.55;18.60;;;7.60;99.90;;;;;;4956875;28;20030;-73
2022/01/19 04:05:44;;;;;;;31.98;19.30;;;7.60;99.90;;;;;;4974352;28;20047;-74
2022/01/19 04:08:10;;;;;;;31.23;19.48;;;7.60;99.90;;;;;;4974394;28;20043;-74
2022/01/19 04:10:36;;;;;;;31.85;18.17;;;7.50;99.90;;;;;;4974792;28;20059;-73
2022/01/19 04:15:57;;;;;;;32.25;18.92;;;7.50;99.90;;;;;;4965163;28;20047;-73
2022/01/19 04:18:22;;;;;;;34.20;19.10;;;7.50;99.90;;;;;;4974448;28;20033;-73
2022/01/19 04:20:51;;;;;;;31.30;18.58;;;7.40;99.90;;;;;;4974402;28;20442;-73
2022/01/19 04:23:18;;;;;;;30.02;18.23;;;7.50;99.90;;;;;;4974508;28;20057;-73
2022/01/19 04:25:44;;;;;;;29.85;17.17;;;7.60;99.90;;;;;;4974650;28;20029;-73
2022/01/19 04:28:10;;;;;;;34.38;18.52;;;7.60;99.90;;;;;;4974122;28;20418;-74
2022/01/19 04:30:36;;;;;;;33.00;18.88;;;7.50;99.90;;;;;;4974119;28;20023;-73
2022/01/19 04:33:10;;;;;;;33.58;18.33;;;7.60;99.90;;;;;;4974101;28;20042;-73
2022/01/19 04:35:54;;;;;;;33.30;18.52;;;7.50;99.90;;;;;;4956442;28;20455;-74
2022/01/19 05:15:27;;;;;;;29.58;16.98;;;7.50;99.90;;;;;;4977559;28;20527;-73
2022/01/19 05:17:53;;;;;;;28.65;17.17;;;7.40;99.90;;;;;;4977370;28;20030;-74
2022/01/19 05:20:19;;;;;;;25.98;16.05;;;7.40;99.90;;;;;;4959797;28;20026;-75
2022/01/19 05:22:44;;;;;;;26.63;15.73;;;7.40;99.90;;;;;;4977300;28;20026;-76
2022/01/19 05:25:10;;;;;;;26.38;15.82;;;7.40;99.90;;;;;;4977349;28;20027;-74
2022/01/19 05:27:36;;;;;;;30.00;16.48;;;7.40;99.90;;;;;;4977240;28;20427;-72
2022/01/19 05:30:02;;;;;;;25.33;14.82;;;7.50;99.90;;;;;;4977216;28;20397;-73
2022/01/19 05:32:27;;;;;;;26.88;16.27;;;7.50;99.90;;;;;;4959409;28;20038;-73
2022/01/19 05:34:53;;;;;;;28.83;15.82;;;7.50;99.90;;;;;;4977221;28;20030;-73
2022/01/19 05:37:18;;;;;;;31.75;16.77;;;7.40;99.90;;;;;;4976785;28;20035;-75
2022/01/19 05:39:44;;;;;;;27.50;15.65;;;7.50;99.90;;;;;;4976704;28;20477;-75
2022/01/19 05:42:14;;;;;;;28.15;16.10;;;7.60;99.90;;;;;;4977020;28;20081;-74
2022/01/19 05:44:44;;;;;;;26.35;15.18;;;7.60;99.90;;;;;;4977023;28;20026;-75
2022/01/19 05:47:14;;;;;;;30.67;18.65;;;7.60;99.90;;;;;;4959001;28;20497;-75
2022/01/19 05:49:43;;;;;;;29.30;16.10;;;7.50;99.90;;;;;;4976567;28;20027;-73
2022/01/19 05:52:10;;;;;;;27.85;15.45;;;7.50;99.90;;;;;;4976426;28;20051;-75
2022/01/19 05:54:36;;;;;;;24.05;15.15;;;7.50;99.90;;;;;;4976475;28;20025;-73
2022/01/19 05:57:02;;;;;;;27.95;16.88;;;7.50;99.90;;;;;;4976393;28;20109;-75
2022/01/19 05:59:27;;;;;;;26.55;15.48;;;7.50;99.90;;;;;;4976385;28;20085;-75
2022/01/19 06:01:54;;;;;;;29.92;16.67;;;7.40;99.90;;;;;;4976549;28;20031;-74
2022/01/19 06:04:19;;;;;;;26.33;15.55;;;7.40;99.90;;;;;;4958979;28;20043;-76
2022/01/19 06:06:45;;;;;;;26.40;17.23;;;7.40;99.90;;;;;;4975777;28;20039;-75
2022/01/19 06:09:32;;;;;;;27.60;16.42;;;7.40;99.90;;;;;;4976277;28;20489;-75
2022/01/19 06:11:56;;;;;;;32.28;19.40;;;7.40;99.90;;;;;;4975946;28;20026;-74
2022/01/19 06:14:23;;;;;;;29.20;17.50;;;7.50;99.90;;;;;;4976400;28;20393;-75
2022/01/19 06:16:48;;;;;;;27.35;15.98;;;7.50;99.90;;;;;;4958633;28;20400;-73
2022/01/19 06:19:19;;;;;;;27.02;15.90;;;7.40;99.90;;;;;;4976064;28;20023;-73
2022/01/19 06:21:45;;;;;;;28.83;16.27;;;7.50;99.90;;;;;;4976036;28;20433;-75
2022/01/19 06:24:10;;;;;;;39.33;24.27;;;7.50;99.90;;;;;;4976012;28;20135;-75
2022/01/19 06:26:38;;;;;;;30.60;18.85;;;7.50;99.90;;;;;;4976289;28;20027;-73
2022/01/19 06:29:04;;;;;;;30.88;17.13;;;7.50;99.90;;;;;;4976467;28;20441;-73
2022/01/19 06:31:30;;;;;;;27.35;15.27;;;7.50;99.90;;;;;;4958295;28;20093;-75
2022/01/19 06:33:56;;;;;;;26.40;15.70;;;7.50;99.90;;;;;;4975744;28;20026;-74
2022/01/19 06:36:21;;;;;;;29.77;16.95;;;7.50;99.90;;;;;;4975622;28;20035;-72
2022/01/19 06:38:47;;;;;;;26.08;15.02;;;7.40;99.90;;;;;;4975987;28;20031;-75
2022/01/19 06:41:12;;;;;;;26.85;14.55;;;7.40;99.90;;;;;;4976142;28;20031;-75
2022/01/19 06:43:38;;;;;;;26.23;15.15;;;7.40;99.90;;;;;;4975888;28;20439;-75
2022/01/19 06:46:04;;;;;;;26.48;14.35;;;7.50;99.90;;;;;;4975499;28;20085;-73
2022/01/19 06:48:30;;;;;;;24.65;13.73;;;7.50;99.90;;;;;;4975546;28;20022;-73
2022/01/19 06:50:56;;;;;;;25.77;15.27;;;7.50;99.90;;;;;;4975440;28;20026;-74
2022/01/19 06:53:22;;;;;;;27.55;15.32;;;7.40;99.90;;;;;;4975394;28;20019;-74
2022/01/19 06:55:47;;;;;;;30.15;16.73;;;7.40;99.90;;;;;;4975280;28;20451;-74
2022/01/19 06:58:13;;;;;;;26.73;16.65;;;7.40;99.90;;;;;;4975360;28;20027;-75
2022/01/19 07:00:39;;;;;;;32.05;15.85;;;7.40;99.90;;;;;;4975291;28;20102;-74
2022/01/19 07:03:05;;;;;;;34.70;19.35;;;7.40;99.90;;;;;;4975073;28;20021;-74
2022/01/19 07:05:31;;;;;;;38.78;23.35;;;7.40;99.90;;;;;;4975019;28;20078;-74
2022/01/19 07:07:57;;;;;;;31.45;17.83;;;7.40;99.90;;;;;;4975380;28;20070;-75
2022/01/19 07:10:24;;;;;;;34.60;20.88;;;7.40;99.90;;;;;;4975371;28;20031;-75
2022/01/19 07:12:50;;;;;;;29.48;17.75;;;7.40;99.90;;;;;;4975038;28;20025;-73
2022/01/19 07:15:16;;;;;;;30.48;16.60;;;7.40;99.90;;;;;;4975046;28;20027;-75
2022/01/19 07:17:42;;;;;;;25.98;15.80;;;7.50;99.90;;;;;;4975603;28;20034;-74
2022/01/19 07:20:08;;;;;;;26.90;14.63;;;7.40;99.90;;;;;;4975517;28;20034;-75
2022/01/19 07:22:36;;;;;;;33.75;19.40;;;7.30;99.90;;;;;;4974633;28;20110;-73
2022/01/19 07:25:01;;;;;;;27.95;16.23;;;7.40;99.90;;;;;;4975314;28;20416;-73
2022/01/19 07:27:27;;;;;;;25.52;15.05;;;7.30;99.90;;;;;;4975048;28;20035;-74
2022/01/19 07:29:53;;;;;;;27.48;15.15;;;7.40;99.90;;;;;;4957423;28;20023;-75
2022/01/19 07:32:20;;;;;;;22.65;12.98;;;7.40;99.90;;;;;;4974696;28;20034;-74
2022/01/19 07:34:45;;;;;;;22.33;13.25;;;7.50;99.90;;;;;;4975048;28;20023;-73
2022/01/19 07:37:11;;;;;;;23.25;13.30;;;7.40;99.90;;;;;;4974977;28;20106;-73
2022/01/19 07:39:37;;;;;;;25.55;14.82;;;7.40;99.90;;;;;;4974938;28;20026;-73
2022/01/19 07:42:03;;;;;;;24.67;14.68;;;7.40;99.90;;;;;;4974448;28;20436;-75
2022/01/19 07:44:29;;;;;;;25.13;13.90;;;7.40;99.90;;;;;;4974601;28;20023;-74
2022/01/19 07:46:55;;;;;;;26.83;13.65;;;7.50;99.90;;;;;;4974518;28;20390;-72
2022/01/19 07:49:21;;;;;;;29.20;15.48;;;7.50;99.90;;;;;;4974555;28;20433;-73
2022/01/19 07:51:46;;;;;;;24.02;15.00;;;7.50;99.90;;;;;;4974440;28;20050;-73
2022/01/19 07:54:13;;;;;;;28.02;15.93;;;7.40;99.90;;;;;;4974490;28;20101;-75
2022/01/19 07:56:38;;;;;;;24.45;13.85;;;7.40;99.90;;;;;;4974964;28;20461;-75
2022/01/19 07:59:04;;;;;;;24.27;13.23;;;7.40;99.90;;;;;;4974626;28;20030;-75
2022/01/19 08:01:31;;;;;;;26.15;14.90;;;7.50;99.90;;;;;;4974381;28;20489;-75
2022/01/19 08:03:58;;;;;;;28.35;16.75;;;7.50;99.90;;;;;;4974303;28;20489;-74
2022/01/19 08:06:24;;;;;;;27.85;17.50;;;7.50;99.90;;;;;;4974100;28;20114;-72
2022/01/19 08:08:50;;;;;;;22.92;13.48;;;7.50;99.90;;;;;;4974305;28;20026;-75
2022/01/19 08:11:16;;;;;;;31.27;20.40;;;7.50;99.90;;;;;;4974263;28;20392;-73
2022/01/19 08:13:42;;;;;;;36.17;22.77;;;7.40;99.90;;;;;;4974236;28;20027;-74
2022/01/19 08:16:07;;;;;;;26.95;16.23;;;7.40;99.90;;;;;;4974475;28;20034;-75
2022/01/19 08:18:33;;;;;;;25.52;16.77;;;7.40;99.90;;;;;;4974281;28;20035;-74
2022/01/19 08:20:59;;;;;;;27.40;17.25;;;7.50;99.90;;;;;;4974483;28;20027;-77
2022/01/19 08:23:25;;;;;;;28.30;14.55;;;7.50;99.90;;;;;;4974422;28;20119;-75
2022/01/19 08:25:51;;;;;;;24.73;12.88;;;7.50;99.90;;;;;;4974167;28;20126;-73
2022/01/19 08:28:17;;;;;;;21.75;14.20;;;7.50;99.90;;;;;;4974672;28;20125;-72
2022/01/19 08:30:44;;;;;;;24.95;15.48;;;7.50;99.90;;;;;;4974351;28;20030;-73
2022/01/19 08:33:10;;;;;;;23.48;13.75;;;7.50;99.90;;;;;;4974421;28;20023;-74
2022/01/19 08:35:36;;;;;;;24.60;15.32;;;7.60;99.90;;;;;;4976999;28;20019;-74
2022/01/19 08:38:02;;;;;;;22.83;12.90;;;7.60;99.90;;;;;;4978236;28;20034;-75
2022/01/19 08:40:30;;;;;;;25.02;14.02;;;7.70;99.90;;;;;;4977971;28;20046;-75
2022/01/19 08:42:56;;;;;;;27.15;15.20;;;7.70;99.90;;;;;;4977840;28;20026;-74
2022/01/19 08:45:23;;;;;;;24.08;13.23;;;7.70;99.90;;;;;;4977705;28;20022;-74
2022/01/19 08:47:48;;;;;;;23.15;12.93;;;7.70;99.90;;;;;;4977594;28;20063;-74
2022/01/19 08:50:15;;;;;;;28.60;18.52;;;7.80;99.90;;;;;;4978005;28;20023;-73
2022/01/19 08:52:43;;;;;;;31.50;19.95;;;7.90;99.90;;;;;;4977660;28;20393;-75
2022/01/19 08:55:09;;;;;;;28.00;18.30;;;7.90;99.90;;;;;;4977554;28;20065;-74
2022/01/19 08:57:34;;;;;;;32.85;17.67;;;7.90;99.90;;;;;;4977472;28;20027;-74
2022/01/19 09:00:00;;;;;;;26.63;14.60;;;7.90;99.90;;;;;;4977551;28;20027;-76
2022/01/19 09:02:26;;;;;;;30.67;18.73;;;7.90;99.90;;;;;;4977759;28;20033;-75
2022/01/19 09:04:51;;;;;;;30.45;22.50;;;7.90;99.90;;;;;;4977406;28;20480;-76
2022/01/19 09:07:19;;;;;;;27.25;18.33;;;7.90;99.90;;;;;;4977909;28;20035;-77
2022/01/19 09:09:44;;;;;;;25.77;15.55;;;7.90;99.90;;;;;;4977937;28;20030;-76
2022/01/19 09:12:10;;;;;;;22.80;12.98;;;7.80;99.90;;;;;;4977849;28;20022;-77
2022/01/19 09:14:36;;;;;;;22.25;11.68;;;7.80;99.90;;;;;;4977290;28;20023;-78
2022/01/19 09:17:07;;;;;;;22.02;12.52;;;7.90;99.90;;;;;;4977176;28;20101;-77
2022/01/19 09:19:34;;;;;;;19.70;12.07;;;7.90;99.90;;;;;;4977851;28;20058;-77
2022/01/19 09:22:02;;;;;;;20.77;12.52;;;7.90;99.90;;;;;;4977100;28;20127;-77
2022/01/19 09:24:28;;;;;;;23.42;12.35;;;7.80;99.90;;;;;;4977038;28;20034;-76
2022/01/19 09:26:53;;;;;;;22.55;12.20;;;7.90;99.90;;;;;;4976924;28;20050;-76
2022/01/19 09:29:19;;;;;;;22.83;13.43;;;7.90;99.90;;;;;;4976894;28;20055;-78
2022/01/19 09:31:45;;;;;;;21.33;12.88;;;7.90;99.90;;;;;;4976995;28;20030;-79
2022/01/19 09:34:14;;;;;;;23.77;14.07;;;7.90;99.90;;;;;;4977167;28;20086;-78
2022/01/19 09:36:46;;;;;;;25.67;15.13;;;7.90;99.90;;;;;;4977053;28;20078;-76
2022/01/19 09:39:16;;;;;;;27.77;15.73;;;7.90;99.90;;;;;;4977096;28;20031;-78
2022/01/19 09:41:42;;;;;;;24.42;15.02;;;7.90;99.90;;;;;;4959367;28;20476;-77
2022/01/19 09:44:08;;;;;;;24.00;14.68;;;7.90;99.90;;;;;;4976668;28;20054;-78
2022/01/19 09:46:35;;;;;;;24.67;14.45;;;7.90;99.90;;;;;;4976208;28;20089;-75
2022/01/19 09:49:02;;;;;;;35.08;16.70;;;7.90;99.90;;;;;;4976825;28;20029;-77
2022/01/19 09:51:29;;;;;;;24.20;14.18;;;7.90;99.90;;;;;;4976624;28;20030;-76
2022/01/19 09:53:55;;;;;;;25.30;14.68;;;7.90;99.90;;;;;;4976539;28;20026;-78
2022/01/19 09:56:20;;;;;;;22.65;13.82;;;8.00;99.90;;;;;;4976435;28;20041;-77
2022/01/19 09:58:47;;;;;;;24.58;14.65;;;8.00;99.90;;;;;;4976517;28;20073;-81
2022/01/19 10:01:25;;;;;;;27.00;14.05;;;8.00;99.90;;;;;;4976571;28;20054;-76
2022/01/19 10:03:50;;;;;;;21.15;11.48;;;8.00;99.90;;;;;;4976755;28;20050;-77
2022/01/19 10:06:23;;;;;;;19.63;12.27;;;8.00;99.90;;;;;;4976050;28;20485;-76
2022/01/19 10:08:56;;;;;;;19.45;12.23;;;8.00;99.90;;;;;;4976191;28;20017;-75
2022/01/19 10:17:06;;;;;;;18.15;10.57;;;8.20;99.90;;;;;;4975241;28;20037;-76
2022/01/19 10:19:35;;;;;;;18.33;10.63;;;8.40;99.90;;;;;;4976136;28;20035;-77
2022/01/19 10:22:18;;;;;;;21.00;13.10;;;8.70;99.90;;;;;;4975869;28;20030;-77
2022/01/19 10:24:52;;;;;;;17.60;10.65;;;9.00;99.90;;;;;;4974153;28;20102;-78
2022/01/19 10:27:39;;;;;;;20.40;10.05;;;9.10;99.90;;;;;;4974410;28;20510;-77
2022/01/19 10:30:04;;;;;;;21.02;11.23;;;9.00;99.90;;;;;;4975461;28;20050;-72
2022/01/19 10:33:00;;;;;;;21.55;12.70;;;9.00;99.90;;;;;;4975490;28;20498;-73
2022/01/19 10:35:36;;;;;;;20.55;12.23;;;8.90;99.90;;;;;;4975617;28;20019;-75
2022/01/19 10:38:26;;;;;;;23.95;12.30;;;9.00;99.90;;;;;;4975537;28;20030;-76
2022/01/19 10:40:55;;;;;;;;;;;9.10;99.90;;;;;;4976473;28;20106;-75
2022/01/19 10:43:46;;;;;;;23.67;12.68;;;9.10;99.90;;;;;;4975699;28;19996;-73
2022/01/19 10:46:33;;;;;;;25.20;14.20;;;9.00;99.90;;;;;;4967100;28;20478;-73
2022/01/19 10:49:05;;;;;;;31.65;15.02;;;9.00;99.90;;;;;;4975550;28;20107;-74
2022/01/19 10:51:43;;;;;;;26.73;14.38;;;8.90;99.90;;;;;;4975768;28;20034;-72
2022/01/19 10:54:09;;;;;;;19.30;10.63;;;8.90;99.90;;;;;;4975768;28;20046;-74
2022/01/19 10:56:35;;;;;;;23.35;12.45;;;8.80;99.90;;;;;;4975504;28;20034;-72
2022/01/19 10:59:07;;;;;;;23.33;12.10;;;8.80;99.90;;;;;;4975236;28;20034;-76
2022/01/19 11:01:34;;;;;;;23.17;12.05;;;8.70;99.90;;;;;;4975360;28;20026;-73
2022/01/19 11:04:23;;;;;;;19.90;10.57;;;8.80;99.90;;;;;;4975184;28;20031;-75
2022/01/19 11:06:55;;;;;;;17.58;9.73;;;8.80;99.90;;;;;;4974678;28;20054;-76
2022/01/19 11:09:24;;;;;;;15.50;8.10;;;8.90;99.90;;;;;;4975500;28;20027;-75
2022/01/19 11:11:53;;;;;;;17.75;8.90;;;9.00;99.90;;;;;;4975039;28;20062;-74
2022/01/19 11:14:19;;;;;;;17.00;8.90;;;9.20;99.90;;;;;;4975012;28;20015;-74
2022/01/19 11:16:47;;;;;;;17.50;9.07;;;9.30;99.90;;;;;;4974967;28;20117;-75
2022/01/19 11:19:13;;;;;;;23.70;10.23;;;9.40;99.90;;;;;;4974992;28;20023;-75
2022/01/19 11:22:16;;;;;;;17.52;9.55;;;9.30;99.90;;;;;;4974955;28;20030;-74
2022/01/19 11:24:45;;;;;;;16.08;9.57;;;9.30;99.90;;;;;;4974936;28;20105;-75
2022/01/19 11:27:11;;;;;;;24.63;13.27;;;9.20;99.90;;;;;;4974811;28;20027;-74
2022/01/19 11:29:38;;;;;;;23.40;12.20;;;9.10;99.90;;;;;;4974819;28;20037;-75
2022/01/19 11:32:33;;;;;;;22.02;12.50;;;9.20;99.90;;;;;;4974815;28;20022;-75
2022/01/19 11:34:59;;;;;;;19.38;11.70;;;9.30;99.90;;;;;;4958094;28;20082;-73
2022/01/19 11:37:33;;;;;;;29.35;12.23;;;9.40;99.90;;;;;;4974901;28;20393;-73
2022/01/19 11:40:07;;;;;;;18.58;9.23;;;9.60;99.90;;;;;;4975261;28;20057;-76
2022/01/19 11:42:33;;;;;;;19.15;8.93;;;9.70;99.90;;;;;;4975147;28;20037;-74
2022/01/19 11:44:59;;;;;;;17.77;9.57;;;9.80;99.90;;;;;;4974873;28;20037;-75
2022/01/19 11:47:31;;;;;;;16.25;8.93;;;9.80;99.90;;;;;;4974492;28;20392;-74
2022/01/19 11:50:09;;;;;;;16.05;8.80;;;9.90;99.90;;;;;;4974542;28;20026;-75
2022/01/19 11:52:38;;;;;;;16.00;9.68;;;10.00;99.90;;;;;;4974867;28;20131;-76
2022/01/19 11:55:18;;;;;;;12.15;7.18;;;10.00;99.90;;;;;;4974964;28;20015;-77
2022/01/19 11:57:45;;;;;;;;;;;10.00;99.90;;;;;;4975459;28;20106;-73
2022/01/19 12:00:38;;;;;;;13.20;7.78;;;10.00;99.90;;;;;;4974648;28;20427;-72
2022/01/19 12:03:17;;;;;;;16.20;9.27;;;10.00;99.90;;;;;;4973852;28;20031;-71
2022/01/19 12:05:44;;;;;;;14.48;9.07;;;10.00;99.90;;;;;;4974272;28;20570;-74
2022/01/19 12:08:27;;;;;;;13.88;8.13;;;9.90;99.90;;;;;;4975242;28;20104;-73
2022/01/19 12:10:57;;;;;;;13.68;8.43;;;9.90;99.90;;;;;;4981402;28;20023;-76
2022/01/19 12:16:53;;;;;;;13.23;7.65;;;9.80;99.90;;;;;;4981391;28;20121;-75
2022/01/19 12:19:27;;;;;;;15.75;9.10;;;9.80;99.90;;;;;;4921235;29;20028;-73
2022/01/19 12:22:00;;;;;;;22.35;8.98;;;9.80;99.90;;;;;;4921463;29;20028;-72
2022/01/19 12:24:37;;;;;;;16.55;9.80;;;9.80;99.90;;;;;;4956610;28;20042;-72
2022/01/19 12:27:07;;;;;;;18.55;9.48;;;9.80;99.90;;;;;;4980923;28;20034;-74
2022/01/19 12:29:33;;;;;;;;;;;9.70;99.90;;;;;;4963481;28;20034;-74
2022/01/19 12:32:03;;;;;;;16.77;9.38;;;9.70;99.90;;;;;;4980700;28;19991;-75
2022/01/19 12:34:43;;;;;;;20.00;10.52;;;9.60;99.90;;;;;;4980809;28;20054;-75
2022/01/19 12:37:10;;;;;;;18.42;10.02;;;9.60;99.90;;;;;;4981030;28;20110;-74
2022/01/19 12:39:47;;;;;;;19.23;9.95;;;9.50;99.90;;;;;;4980584;28;20482;-76
2022/01/19 12:42:21;;;;;;;24.40;10.07;;;9.50;99.90;;;;;;4980523;28;20461;-75
2022/01/19 12:44:50;;;;;;;17.95;10.90;;;9.50;99.90;;;;;;4980889;28;20031;-76
2022/01/19 12:47:24;;;;;;;16.75;9.32;;;9.50;99.90;;;;;;4980387;28;20499;-74
2022/01/19 12:49:51;;;;;;;17.95;11.23;;;9.50;99.90;;;;;;4980745;28;20103;-73
2022/01/19 12:52:18;;;;;;;18.73;12.30;;;9.60;99.90;;;;;;4980391;28;20505;-73
2022/01/19 12:54:43;;;;;;;20.90;13.27;;;9.60;99.90;;;;;;4980312;28;20046;-75
2022/01/19 12:57:15;;;;;;;32.30;12.45;;;9.60;99.90;;;;;;4980397;28;20493;-75
2022/01/19 12:59:41;;;;;;;18.98;11.18;;;9.60;99.90;;;;;;4980591;28;20022;-75
2022/01/19 13:02:07;;;;;;;15.43;10.25;;;9.60;99.90;;;;;;4980904;28;20050;-76
2022/01/19 13:04:35;;;;;;;21.50;10.50;;;9.60;99.90;;;;;;4980212;28;20509;-73
2022/01/19 13:07:31;;;;;;;21.67;11.52;;;9.60;99.90;;;;;;4979773;28;20049;-75
2022/01/19 13:13:05;;;;;;;18.75;11.20;;;9.60;99.90;;;;;;4964644;28;20039;-75
2022/01/19 13:15:52;;;;;;;20.40;9.23;;;9.70;99.90;;;;;;4980178;28;20019;-75
2022/01/19 13:18:35;;;;;;;19.42;10.30;;;9.80;99.90;;;;;;4980493;28;20492;-75
2022/01/19 13:21:05;;;;;;;19.90;11.38;;;9.70;99.90;;;;;;4959778;28;20130;-73
2022/01/19 13:23:34;;;;;;;20.48;10.48;;;9.70;99.90;;;;;;4977009;28;20019;-73
2022/01/19 13:26:05;;;;;;;18.30;9.80;;;9.70;99.90;;;;;;4976982;28;20059;-72
2022/01/19 13:28:34;;;;;;;17.75;10.20;;;9.70;99.90;;;;;;4977036;28;20030;-74
2022/01/19 13:31:28;;;;;;;18.75;10.05;;;9.60;99.90;;;;;;4976843;28;20026;-76
2022/01/19 13:33:58;;;;;;;16.60;9.35;;;9.60;99.90;;;;;;4960270;28;20035;-74
2022/01/19 13:36:35;;;;;;;17.23;9.98;;;9.70;99.90;;;;;;4977177;28;20034;-76
2022/01/19 13:39:03;;;;;;;15.85;9.27;;;9.60;99.90;;;;;;4977154;28;20035;-74
2022/01/19 13:41:29;;;;;;;15.48;8.57;;;9.60;99.90;;;;;;4976681;28;20035;-74
2022/01/19 13:44:07;;;;;;;16.35;9.05;;;9.60;99.90;;;;;;4976764;28;20605;-75
2022/01/19 13:46:37;;;;;;;15.30;8.40;;;9.60;99.90;;;;;;4976578;28;20031;-75
2022/01/19 13:49:05;;;;;;;16.02;8.00;;;9.70;99.90;;;;;;4976750;28;20512;-75
2022/01/19 13:51:32;;;;;;;16.15;8.88;;;9.70;99.90;;;;;;4977118;28;20038;-73
2022/01/19 13:54:05;;;;;;;13.82;8.38;;;9.70;99.90;;;;;;4976815;28;20026;-75
2022/01/19 13:56:39;;;;;;;16.67;9.57;;;9.80;99.90;;;;;;4976731;28;20031;-75
2022/01/19 13:59:17;;;;;;;14.50;8.00;;;9.80;99.90;;;;;;4976835;28;20477;-74
2022/01/19 14:01:52;;;;;;;14.82;8.40;;;9.70;99.90;;;;;;4976745;28;20026;-75
2022/01/19 14:04:18;;;;;;;18.40;10.05;;;9.70;99.90;;;;;;4976641;28;20060;-72
2022/01/19 14:06:47;;;;;;;14.57;8.60;;;9.70;99.90;;;;;;4975987;28;20540;-75
2022/01/19 14:09:16;;;;;;;18.45;9.80;;;9.70;99.90;;;;;;4976254;28;20018;-76
2022/01/19 14:12:06;;;;;;;19.77;11.20;;;9.60;99.90;;;;;;4976134;28;20026;-75
2022/01/19 14:14:56;;;;;;;19.30;10.10;;;9.60;99.90;;;;;;4976669;28;20019;-75
2022/01/19 14:17:34;;;;;;;15.70;8.70;;;9.60;99.90;;;;;;4976551;28;20109;-74
2022/01/19 14:20:00;;;;;;;16.83;9.77;;;9.60;99.90;;;;;;4976622;28;20026;-75
2022/01/19 14:22:27;;;;;;;14.25;7.95;;;9.50;99.90;;;;;;4976341;28;20031;-72
2022/01/19 14:24:57;;;;;;;16.85;7.43;;;9.50;99.90;;;;;;4975979;28;20432;-74
2022/01/19 14:27:23;;;;;;;;;;;9.50;99.90;;;;;;4976520;28;20031;-75
2022/01/19 14:30:09;;;;;;;13.85;7.32;;;9.40;99.90;;;;;;4958543;28;20375;-74
2022/01/19 14:32:41;;;;;;;15.07;9.00;;;9.40;99.90;;;;;;4974744;28;20047;-74
2022/01/19 14:35:30;;;;;;;16.73;9.95;;;9.40;99.90;;;;;;4976112;28;20050;-75
2022/01/19 14:38:26;;;;;;;16.55;9.93;;;9.40;99.90;;;;;;4976138;28;20108;-75
2022/01/19 14:41:11;;;;;;;20.65;11.52;;;9.30;99.90;;;;;;4976293;28;20473;-74
2022/01/19 14:43:42;;;;;;;21.73;11.45;;;9.30;99.90;;;;;;4976000;28;20108;-73
2022/01/19 14:46:11;;;;;;;18.33;10.73;;;9.30;99.90;;;;;;4975581;28;20022;-74